Decoded Metar for LERS (REUS in SPAIN) (IATA:REU) | Meteo·Mobile Aviation Weather
aviador You're here:

LERS Decoded Metar

REUS in SPAIN
Report Time2019-10-19 21:30:00
UTC Time2019-10-19 21:50:09
Flight Rules mvfr MVFR
Wind160° at 04 kt
W.Decomp.*RWY 07: 4.0 kt RCW
Visibility9999 m
Phenomena:N/A
Clouds:Scattered 013 Hf
Broken 028 Hf
Ceiling2,800 ft
Temp21°C (ISA +6)
Dew Point21°C (100% RH)
QNH1007 hPa
Density Alt1,539 ft
Elevation249 ft
Report Wrong Elevation
Raw Report
LERS 192130Z 16004KT 080V210 9999 SCT013 BKN028 21/21 Q1007=

Extra information for LERS:More info

Metar Taf Metar & Taf Last 4 Metars F.Rules Stats Wind Profile Meteogram Temp Stats Airport Information Weather charts Add Link Nearby VenuesMetar ALERT Operation Metar Decoded Social comments

Miami platja webcam
Mas La Palomera